sensor_id;sensor_type;location;lat;lon;timestamp;temperature;humidity
39023;DHT22;25908;51.984;5.928;2022-07-15T00:02:22;17.60;76.30
39023;DHT22;25908;51.984;5.928;2022-07-15T00:04:47;17.60;76.70
39023;DHT22;25908;51.984;5.928;2022-07-15T00:07:13;17.60;76.90
39023;DHT22;25908;51.984;5.928;2022-07-15T00:09:39;17.50;76.90
39023;DHT22;25908;51.984;5.928;2022-07-15T00:12:23;17.50;77.00
39023;DHT22;25908;51.984;5.928;2022-07-15T00:14:49;17.50;77.30
39023;DHT22;25908;51.984;5.928;2022-07-15T00:17:15;17.40;77.50
39023;DHT22;25908;51.984;5.928;2022-07-15T00:19:40;17.40;77.60
39023;DHT22;25908;51.984;5.928;2022-07-15T00:22:06;17.30;77.70
39023;DHT22;25908;51.984;5.928;2022-07-15T00:24:32;17.30;78.00
39023;DHT22;25908;51.984;5.928;2022-07-15T00:26:57;17.20;78.10
39023;DHT22;25908;51.984;5.928;2022-07-15T00:29:23;17.30;78.60
39023;DHT22;25908;51.984;5.928;2022-07-15T00:31:48;17.20;78.70
39023;DHT22;25908;51.984;5.928;2022-07-15T00:34:14;17.20;78.80
39023;DHT22;25908;51.984;5.928;2022-07-15T00:36:41;17.20;78.90
39023;DHT22;25908;51.984;5.928;2022-07-15T00:39:07;17.10;78.90
39023;DHT22;25908;51.984;5.928;2022-07-15T00:41:40;17.10;79.10
39023;DHT22;25908;51.984;5.928;2022-07-15T00:44:06;17.00;79.20
39023;DHT22;25908;51.984;5.928;2022-07-15T00:46:32;17.10;79.40
39023;DHT22;25908;51.984;5.928;2022-07-15T00:48:58;17.00;79.60
39023;DHT22;25908;51.984;5.928;2022-07-15T00:51:24;17.00;79.60
39023;DHT22;25908;51.984;5.928;2022-07-15T00:53:52;17.00;79.80
39023;DHT22;25908;51.984;5.928;2022-07-15T00:56:21;17.00;80.00
39023;DHT22;25908;51.984;5.928;2022-07-15T00:58:49;16.90;80.00
39023;DHT22;25908;51.984;5.928;2022-07-15T01:01:19;16.90;80.10
39023;DHT22;25908;51.984;5.928;2022-07-15T01:03:47;16.90;80.10
39023;DHT22;25908;51.984;5.928;2022-07-15T01:06:13;16.90;80.20
39023;DHT22;25908;51.984;5.928;2022-07-15T01:08:39;16.90;80.50
39023;DHT22;25908;51.984;5.928;2022-07-15T01:11:04;16.90;80.70
39023;DHT22;25908;51.984;5.928;2022-07-15T01:13:30;16.90;81.10
39023;DHT22;25908;51.984;5.928;2022-07-15T01:15:56;16.90;80.80
39023;DHT22;25908;51.984;5.928;2022-07-15T01:18:22;16.90;80.90
39023;DHT22;25908;51.984;5.928;2022-07-15T01:20:47;16.90;80.90
39023;DHT22;25908;51.984;5.928;2022-07-15T01:23:14;16.90;81.00
39023;DHT22;25908;51.984;5.928;2022-07-15T01:25:40;16.90;81.00
39023;DHT22;25908;51.984;5.928;2022-07-15T01:28:08;16.90;81.10
39023;DHT22;25908;51.984;5.928;2022-07-15T01:30:34;16.90;81.20
39023;DHT22;25908;51.984;5.928;2022-07-15T01:32:59;17.00;81.20
39023;DHT22;25908;51.984;5.928;2022-07-15T01:35:25;16.90;81.20
39023;DHT22;25908;51.984;5.928;2022-07-15T01:37:50;17.00;81.20
39023;DHT22;25908;51.984;5.928;2022-07-15T01:40:16;17.00;81.20
39023;DHT22;25908;51.984;5.928;2022-07-15T01:42:41;17.00;81.30
39023;DHT22;25908;51.984;5.928;2022-07-15T01:45:08;17.00;81.40
39023;DHT22;25908;51.984;5.928;2022-07-15T01:47:41;17.00;81.40
39023;DHT22;25908;51.984;5.928;2022-07-15T01:50:07;17.00;81.70
39023;DHT22;25908;51.984;5.928;2022-07-15T01:52:33;17.00;81.60
39023;DHT22;25908;51.984;5.928;2022-07-15T01:54:59;17.00;81.50
39023;DHT22;25908;51.984;5.928;2022-07-15T01:57:25;17.00;81.60
39023;DHT22;25908;51.984;5.928;2022-07-15T01:59:50;17.00;81.70
39023;DHT22;25908;51.984;5.928;2022-07-15T02:02:16;17.00;81.60
39023;DHT22;25908;51.984;5.928;2022-07-15T02:04:41;17.00;81.60
39023;DHT22;25908;51.984;5.928;2022-07-15T02:07:07;17.10;81.70
39023;DHT22;25908;51.984;5.928;2022-07-15T02:09:33;17.10;81.50
39023;DHT22;25908;51.984;5.928;2022-07-15T02:11:58;17.10;81.50
39023;DHT22;25908;51.984;5.928;2022-07-15T02:14:24;17.10;81.90
39023;DHT22;25908;51.984;5.928;2022-07-15T02:16:50;17.10;81.80
39023;DHT22;25908;51.984;5.928;2022-07-15T02:19:16;17.10;81.70
39023;DHT22;25908;51.984;5.928;2022-07-15T02:21:41;17.10;82.40
39023;DHT22;25908;51.984;5.928;2022-07-15T02:24:07;17.10;81.80
39023;DHT22;25908;51.984;5.928;2022-07-15T02:26:33;17.10;82.00
39023;DHT22;25908;51.984;5.928;2022-07-15T02:28:59;17.10;82.20
39023;DHT22;25908;51.984;5.928;2022-07-15T02:31:25;17.10;82.20
39023;DHT22;25908;51.984;5.928;2022-07-15T02:33:50;17.10;82.00
39023;DHT22;25908;51.984;5.928;2022-07-15T02:36:16;17.10;81.90
39023;DHT22;25908;51.984;5.928;2022-07-15T02:38:42;17.00;82.00
39023;DHT22;25908;51.984;5.928;2022-07-15T02:41:08;17.10;82.10
39023;DHT22;25908;51.984;5.928;2022-07-15T02:43:34;17.10;82.10
39023;DHT22;25908;51.984;5.928;2022-07-15T02:46:02;17.10;82.10
39023;DHT22;25908;51.984;5.928;2022-07-15T02:48:28;17.10;82.00
39023;DHT22;25908;51.984;5.928;2022-07-15T02:50:53;17.10;81.90
39023;DHT22;25908;51.984;5.928;2022-07-15T02:53:19;17.10;81.60
39023;DHT22;25908;51.984;5.928;2022-07-15T02:55:47;17.10;81.70
39023;DHT22;25908;51.984;5.928;2022-07-15T02:58:13;17.10;81.60
39023;DHT22;25908;51.984;5.928;2022-07-15T03:00:39;17.10;81.50
39023;DHT22;25908;51.984;5.928;2022-07-15T03:03:04;17.10;81.40
39023;DHT22;25908;51.984;5.928;2022-07-15T03:05:30;17.00;81.40
39023;DHT22;25908;51.984;5.928;2022-07-15T03:07:55;17.00;81.20
39023;DHT22;25908;51.984;5.928;2022-07-15T03:10:21;17.10;81.20
39023;DHT22;25908;51.984;5.928;2022-07-15T03:12:47;17.00;81.20
39023;DHT22;25908;51.984;5.928;2022-07-15T03:15:12;17.10;81.30
39023;DHT22;25908;51.984;5.928;2022-07-15T03:17:38;17.10;81.50
39023;DHT22;25908;51.984;5.928;2022-07-15T03:20:10;17.00;81.40
39023;DHT22;25908;51.984;5.928;2022-07-15T03:22:36;17.00;81.30
39023;DHT22;25908;51.984;5.928;2022-07-15T03:25:02;17.00;81.30
39023;DHT22;25908;51.984;5.928;2022-07-15T03:27:27;17.00;81.30
39023;DHT22;25908;51.984;5.928;2022-07-15T03:29:53;17.00;81.50
39023;DHT22;25908;51.984;5.928;2022-07-15T03:32:18;17.00;81.70
39023;DHT22;25908;51.984;5.928;2022-07-15T03:34:46;17.00;81.70
39023;DHT22;25908;51.984;5.928;2022-07-15T03:37:12;17.00;81.80
39023;DHT22;25908;51.984;5.928;2022-07-15T03:39:38;17.00;81.80
39023;DHT22;25908;51.984;5.928;2022-07-15T03:42:03;17.00;81.90
39023;DHT22;25908;51.984;5.928;2022-07-15T03:44:29;17.00;82.00
39023;DHT22;25908;51.984;5.928;2022-07-15T03:46:54;17.00;82.10
39023;DHT22;25908;51.984;5.928;2022-07-15T03:49:20;17.00;82.10
39023;DHT22;25908;51.984;5.928;2022-07-15T03:51:46;17.00;82.10
39023;DHT22;25908;51.984;5.928;2022-07-15T03:54:11;17.00;82.00
39023;DHT22;25908;51.984;5.928;2022-07-15T03:56:37;16.90;81.90
39023;DHT22;25908;51.984;5.928;2022-07-15T03:59:03;17.00;82.20
39023;DHT22;25908;51.984;5.928;2022-07-15T04:01:29;17.00;82.30
39023;DHT22;25908;51.984;5.928;2022-07-15T04:03:55;16.90;82.40
39023;DHT22;25908;51.984;5.928;2022-07-15T04:06:20;17.00;82.40
39023;DHT22;25908;51.984;5.928;2022-07-15T04:08:47;16.90;82.50
39023;DHT22;25908;51.984;5.928;2022-07-15T04:11:13;16.90;82.70
39023;DHT22;25908;51.984;5.928;2022-07-15T04:13:39;16.90;82.80
39023;DHT22;25908;51.984;5.928;2022-07-15T04:16:06;16.90;83.00
39023;DHT22;25908;51.984;5.928;2022-07-15T04:18:32;16.90;82.90
39023;DHT22;25908;51.984;5.928;2022-07-15T04:20:58;16.90;82.80
39023;DHT22;25908;51.984;5.928;2022-07-15T04:23:24;17.00;83.00
39023;DHT22;25908;51.984;5.928;2022-07-15T04:25:50;16.90;82.70
39023;DHT22;25908;51.984;5.928;2022-07-15T04:28:22;17.00;82.80
39023;DHT22;25908;51.984;5.928;2022-07-15T04:30:49;17.00;82.60
39023;DHT22;25908;51.984;5.928;2022-07-15T04:33:15;17.00;82.40
39023;DHT22;25908;51.984;5.928;2022-07-15T04:35:41;17.00;82.90
39023;DHT22;25908;51.984;5.928;2022-07-15T04:38:07;16.90;82.70
39023;DHT22;25908;51.984;5.928;2022-07-15T04:40:33;16.90;82.60
39023;DHT22;25908;51.984;5.928;2022-07-15T04:42:59;17.00;82.60
39023;DHT22;25908;51.984;5.928;2022-07-15T04:45:26;17.00;82.80
39023;DHT22;25908;51.984;5.928;2022-07-15T04:47:51;16.90;82.80
39023;DHT22;25908;51.984;5.928;2022-07-15T04:50:17;17.00;82.90
39023;DHT22;25908;51.984;5.928;2022-07-15T04:53:01;16.90;82.80
39023;DHT22;25908;51.984;5.928;2022-07-15T04:55:27;17.00;83.30
39023;DHT22;25908;51.984;5.928;2022-07-15T04:57:53;16.90;82.90
39023;DHT22;25908;51.984;5.928;2022-07-15T05:00:18;17.00;82.90
39023;DHT22;25908;51.984;5.928;2022-07-15T05:02:44;16.90;82.80
39023;DHT22;25908;51.984;5.928;2022-07-15T05:05:09;17.00;82.90
39023;DHT22;25908;51.984;5.928;2022-07-15T05:07:35;17.00;82.90
39023;DHT22;25908;51.984;5.928;2022-07-15T05:10:06;17.00;82.70
39023;DHT22;25908;51.984;5.928;2022-07-15T05:12:32;17.00;82.50
39023;DHT22;25908;51.984;5.928;2022-07-15T05:14:58;17.10;82.90
39023;DHT22;25908;51.984;5.928;2022-07-15T05:17:24;17.10;82.90
39023;DHT22;25908;51.984;5.928;2022-07-15T05:19:50;17.10;83.00
39023;DHT22;25908;51.984;5.928;2022-07-15T05:22:15;17.10;82.70
39023;DHT22;25908;51.984;5.928;2022-07-15T05:24:42;17.10;82.90
39023;DHT22;25908;51.984;5.928;2022-07-15T05:27:08;17.20;83.70
39023;DHT22;25908;51.984;5.928;2022-07-15T05:29:33;17.20;83.20
39023;DHT22;25908;51.984;5.928;2022-07-15T05:31:59;17.30;83.90
39023;DHT22;25908;51.984;5.928;2022-07-15T05:34:24;17.40;84.00
39023;DHT22;25908;51.984;5.928;2022-07-15T05:36:50;17.50;84.30
39023;DHT22;25908;51.984;5.928;2022-07-15T05:39:15;17.60;84.10
39023;DHT22;25908;51.984;5.928;2022-07-15T05:41:41;17.70;83.50
39023;DHT22;25908;51.984;5.928;2022-07-15T05:44:06;17.80;82.10
39023;DHT22;25908;51.984;5.928;2022-07-15T05:46:32;18.00;80.90
39023;DHT22;25908;51.984;5.928;2022-07-15T05:48:57;18.00;80.40
39023;DHT22;25908;51.984;5.928;2022-07-15T05:51:23;18.10;79.80
39023;DHT22;25908;51.984;5.928;2022-07-15T05:53:49;18.20;79.60
39023;DHT22;25908;51.984;5.928;2022-07-15T05:56:14;18.30;79.30
39023;DHT22;25908;51.984;5.928;2022-07-15T05:58:40;18.30;79.40
39023;DHT22;25908;51.984;5.928;2022-07-15T06:01:06;18.50;79.10
39023;DHT22;25908;51.984;5.928;2022-07-15T06:03:31;18.60;78.30
39023;DHT22;25908;51.984;5.928;2022-07-15T06:05:57;18.80;77.70
39023;DHT22;25908;51.984;5.928;2022-07-15T06:08:23;18.90;77.40
39023;DHT22;25908;51.984;5.928;2022-07-15T06:10:48;19.10;76.90
39023;DHT22;25908;51.984;5.928;2022-07-15T06:13:14;19.20;76.30
39023;DHT22;25908;51.984;5.928;2022-07-15T06:15:40;19.40;75.80
39023;DHT22;25908;51.984;5.928;2022-07-15T06:18:06;19.60;75.00
39023;DHT22;25908;51.984;5.928;2022-07-15T06:20:32;19.70;74.70
39023;DHT22;25908;51.984;5.928;2022-07-15T06:22:58;19.80;74.50
39023;DHT22;25908;51.984;5.928;2022-07-15T06:25:23;20.00;75.00
39023;DHT22;25908;51.984;5.928;2022-07-15T06:27:49;20.40;74.50
39023;DHT22;25908;51.984;5.928;2022-07-15T06:30:15;20.70;73.50
39023;DHT22;25908;51.984;5.928;2022-07-15T06:32:40;21.00;72.30
39023;DHT22;25908;51.984;5.928;2022-07-15T06:35:06;21.30;71.60
39023;DHT22;25908;51.984;5.928;2022-07-15T06:37:32;21.60;70.10
39023;DHT22;25908;51.984;5.928;2022-07-15T06:39:58;21.90;69.10
39023;DHT22;25908;51.984;5.928;2022-07-15T06:42:24;22.00;66.90
39023;DHT22;25908;51.984;5.928;2022-07-15T06:44:50;22.20;66.40
39023;DHT22;25908;51.984;5.928;2022-07-15T06:47:16;22.30;65.60
39023;DHT22;25908;51.984;5.928;2022-07-15T06:49:41;22.50;64.20
39023;DHT22;25908;51.984;5.928;2022-07-15T06:52:07;22.70;63.20
39023;DHT22;25908;51.984;5.928;2022-07-15T06:54:32;22.90;62.60
39023;DHT22;25908;51.984;5.928;2022-07-15T06:56:58;22.90;62.20
39023;DHT22;25908;51.984;5.928;2022-07-15T06:59:24;23.10;62.20
39023;DHT22;25908;51.984;5.928;2022-07-15T07:01:51;23.20;61.30
39023;DHT22;25908;51.984;5.928;2022-07-15T07:04:17;23.30;60.60
39023;DHT22;25908;51.984;5.928;2022-07-15T07:06:43;23.50;60.10
39023;DHT22;25908;51.984;5.928;2022-07-15T07:09:09;23.60;60.40
39023;DHT22;25908;51.984;5.928;2022-07-15T07:11:35;23.70;59.60
39023;DHT22;25908;51.984;5.928;2022-07-15T07:14:00;23.90;58.70
39023;DHT22;25908;51.984;5.928;2022-07-15T07:16:26;24.00;58.00
39023;DHT22;25908;51.984;5.928;2022-07-15T07:18:52;24.10;57.40
39023;DHT22;25908;51.984;5.928;2022-07-15T07:21:18;24.20;57.10
39023;DHT22;25908;51.984;5.928;2022-07-15T07:23:45;24.20;56.40
39023;DHT22;25908;51.984;5.928;2022-07-15T07:26:11;24.20;55.70
39023;DHT22;25908;51.984;5.928;2022-07-15T07:28:37;24.20;55.20
39023;DHT22;25908;51.984;5.928;2022-07-15T07:31:07;24.10;57.00
39023;DHT22;25908;51.984;5.928;2022-07-15T07:33:33;24.10;58.20
39023;DHT22;25908;51.984;5.928;2022-07-15T07:35:58;24.40;56.30
39023;DHT22;25908;51.984;5.928;2022-07-15T07:38:24;24.60;54.90
39023;DHT22;25908;51.984;5.928;2022-07-15T07:40:50;24.60;53.90
39023;DHT22;25908;51.984;5.928;2022-07-15T07:43:16;24.70;54.30
39023;DHT22;25908;51.984;5.928;2022-07-15T07:45:43;24.90;53.80
39023;DHT22;25908;51.984;5.928;2022-07-15T07:48:08;25.30;53.30
39023;DHT22;25908;51.984;5.928;2022-07-15T07:50:34;25.60;52.20
39023;DHT22;25908;51.984;5.928;2022-07-15T07:52:59;25.70;52.40
39023;DHT22;25908;51.984;5.928;2022-07-15T07:55:25;25.70;50.80
39023;DHT22;25908;51.984;5.928;2022-07-15T07:57:53;25.80;51.10
39023;DHT22;25908;51.984;5.928;2022-07-15T08:00:21;26.00;48.10
39023;DHT22;25908;51.984;5.928;2022-07-15T08:02:47;26.10;47.70
39023;DHT22;25908;51.984;5.928;2022-07-15T08:05:15;26.20;49.00
39023;DHT22;25908;51.984;5.928;2022-07-15T08:07:41;25.90;48.00
39023;DHT22;25908;51.984;5.928;2022-07-15T08:10:09;25.50;47.80
39023;DHT22;25908;51.984;5.928;2022-07-15T08:12:34;25.10;48.50
39023;DHT22;25908;51.984;5.928;2022-07-15T08:15:02;24.60;48.20
39023;DHT22;25908;51.984;5.928;2022-07-15T08:17:27;24.40;49.80
39023;DHT22;25908;51.984;5.928;2022-07-15T08:19:53;24.50;49.70
39023;DHT22;25908;51.984;5.928;2022-07-15T08:22:19;24.40;49.70
39023;DHT22;25908;51.984;5.928;2022-07-15T08:24:45;24.40;50.40
39023;DHT22;25908;51.984;5.928;2022-07-15T08:27:11;24.20;50.00
39023;DHT22;25908;51.984;5.928;2022-07-15T08:29:36;24.30;50.10
39023;DHT22;25908;51.984;5.928;2022-07-15T08:32:04;24.30;50.00
39023;DHT22;25908;51.984;5.928;2022-07-15T08:34:30;24.20;50.50
39023;DHT22;25908;51.984;5.928;2022-07-15T08:36:55;24.10;52.70
39023;DHT22;25908;51.984;5.928;2022-07-15T08:39:21;24.00;54.00
39023;DHT22;25908;51.984;5.928;2022-07-15T08:41:46;23.90;54.60
39023;DHT22;25908;51.984;5.928;2022-07-15T08:44:12;23.80;55.00
39023;DHT22;25908;51.984;5.928;2022-07-15T08:46:41;23.70;54.30
39023;DHT22;25908;51.984;5.928;2022-07-15T08:49:16;23.50;54.30
39023;DHT22;25908;51.984;5.928;2022-07-15T08:51:44;23.40;54.50
39023;DHT22;25908;51.984;5.928;2022-07-15T08:54:11;23.30;55.30
39023;DHT22;25908;51.984;5.928;2022-07-15T08:56:37;23.30;55.60
39023;DHT22;25908;51.984;5.928;2022-07-15T08:59:04;23.10;53.30
39023;DHT22;25908;51.984;5.928;2022-07-15T09:01:33;23.00;54.20
39023;DHT22;25908;51.984;5.928;2022-07-15T09:03:59;22.80;55.10
39023;DHT22;25908;51.984;5.928;2022-07-15T09:06:31;22.80;56.20
39023;DHT22;25908;51.984;5.928;2022-07-15T09:08:57;22.70;54.10
39023;DHT22;25908;51.984;5.928;2022-07-15T09:11:29;22.60;55.20
39023;DHT22;25908;51.984;5.928;2022-07-15T09:13:58;22.60;53.90
39023;DHT22;25908;51.984;5.928;2022-07-15T09:16:24;22.60;53.60
39023;DHT22;25908;51.984;5.928;2022-07-15T09:18:51;22.60;53.70
39023;DHT22;25908;51.984;5.928;2022-07-15T09:21:20;22.60;54.80
39023;DHT22;25908;51.984;5.928;2022-07-15T09:23:46;22.70;54.20
39023;DHT22;25908;51.984;5.928;2022-07-15T09:26:32;22.80;55.30
39023;DHT22;25908;51.984;5.928;2022-07-15T09:28:58;23.00;54.90
39023;DHT22;25908;51.984;5.928;2022-07-15T09:31:30;23.30;54.70
39023;DHT22;25908;51.984;5.928;2022-07-15T09:34:15;23.50;54.50
39023;DHT22;25908;51.984;5.928;2022-07-15T09:36:44;23.70;54.40
39023;DHT22;25908;51.984;5.928;2022-07-15T09:39:11;23.80;54.00
39023;DHT22;25908;51.984;5.928;2022-07-15T09:41:39;23.70;54.30
39023;DHT22;25908;51.984;5.928;2022-07-15T09:49:34;23.20;55.80
39023;DHT22;25908;51.984;5.928;2022-07-15T09:52:08;23.10;56.10
39023;DHT22;25908;51.984;5.928;2022-07-15T09:54:37;23.00;56.20
39023;DHT22;25908;51.984;5.928;2022-07-15T09:57:06;23.00;56.30
39023;DHT22;25908;51.984;5.928;2022-07-15T09:59:33;23.00;55.80
39023;DHT22;25908;51.984;5.928;2022-07-15T10:01:59;23.00;55.90
39023;DHT22;25908;51.984;5.928;2022-07-15T10:04:26;23.10;56.70
39023;DHT22;25908;51.984;5.928;2022-07-15T10:06:54;23.40;55.60
39023;DHT22;25908;51.984;5.928;2022-07-15T10:09:24;23.50;55.00
39023;DHT22;25908;51.984;5.928;2022-07-15T10:11:53;23.60;55.20
39023;DHT22;25908;51.984;5.928;2022-07-15T10:23:10;23.20;55.50
39023;DHT22;25908;51.984;5.928;2022-07-15T10:28:57;23.10;55.40
39023;DHT22;25908;51.984;5.928;2022-07-15T10:31:26;23.20;54.60
39023;DHT22;25908;51.984;5.928;2022-07-15T10:39:17;23.40;53.40
39023;DHT22;25908;51.984;5.928;2022-07-15T10:41:55;23.70;52.60
39023;DHT22;25908;51.984;5.928;2022-07-15T10:44:35;24.10;51.70
39023;DHT22;25908;51.984;5.928;2022-07-15T10:49:45;24.70;51.00
39023;DHT22;25908;51.984;5.928;2022-07-15T10:54:47;24.80;51.50
39023;DHT22;25908;51.984;5.928;2022-07-15T10:57:14;24.80;51.80
39023;DHT22;25908;51.984;5.928;2022-07-15T10:59:52;24.80;51.20
39023;DHT22;25908;51.984;5.928;2022-07-15T11:02:19;25.00;51.90
39023;DHT22;25908;51.984;5.928;2022-07-15T11:04:46;25.10;49.70
39023;DHT22;25908;51.984;5.928;2022-07-15T11:09:54;25.20;50.90
39023;DHT22;25908;51.984;5.928;2022-07-15T11:14:56;25.50;49.90
39023;DHT22;25908;51.984;5.928;2022-07-15T11:19:56;25.40;51.00
39023;DHT22;25908;51.984;5.928;2022-07-15T11:22:23;25.50;51.40
39023;DHT22;25908;51.984;5.928;2022-07-15T11:24:50;25.70;50.80
39023;DHT22;25908;51.984;5.928;2022-07-15T11:27:16;25.60;49.50
39023;DHT22;25908;51.984;5.928;2022-07-15T11:29:42;25.40;49.20
39023;DHT22;25908;51.984;5.928;2022-07-15T11:32:08;25.10;49.50
39023;DHT22;25908;51.984;5.928;2022-07-15T11:34:39;24.80;50.70
39023;DHT22;25908;51.984;5.928;2022-07-15T11:37:06;24.60;51.40
39023;DHT22;25908;51.984;5.928;2022-07-15T11:39:31;24.40;50.70
39023;DHT22;25908;51.984;5.928;2022-07-15T11:41:57;24.20;51.10
39023;DHT22;25908;51.984;5.928;2022-07-15T11:44:49;24.00;51.80
39023;DHT22;25908;51.984;5.928;2022-07-15T11:47:14;23.80;51.50
39023;DHT22;25908;51.984;5.928;2022-07-15T11:49:40;23.70;52.10
39023;DHT22;25908;51.984;5.928;2022-07-15T11:52:12;23.80;52.50
39023;DHT22;25908;51.984;5.928;2022-07-15T11:54:40;24.10;52.70
39023;DHT22;25908;51.984;5.928;2022-07-15T11:57:08;24.40;51.70
39023;DHT22;25908;51.984;5.928;2022-07-15T11:59:35;24.70;52.40
39023;DHT22;25908;51.984;5.928;2022-07-15T12:04:29;24.90;51.10
39023;DHT22;25908;51.984;5.928;2022-07-15T12:06:55;24.80;50.10
39023;DHT22;25908;51.984;5.928;2022-07-15T12:09:20;24.70;51.30
39023;DHT22;25908;51.984;5.928;2022-07-15T12:11:46;24.50;50.70
39023;DHT22;25908;51.984;5.928;2022-07-15T12:14:22;24.30;50.30
39023;DHT22;25908;51.984;5.928;2022-07-15T12:16:52;24.10;52.40
39023;DHT22;25908;51.984;5.928;2022-07-15T12:19:26;24.00;51.80
39023;DHT22;25908;51.984;5.928;2022-07-15T12:21:54;23.90;52.10
39023;DHT22;25908;51.984;5.928;2022-07-15T12:24:43;23.90;52.60
39023;DHT22;25908;51.984;5.928;2022-07-15T12:27:07;23.90;52.20
39023;DHT22;25908;51.984;5.928;2022-07-15T12:29:34;23.90;52.60
39023;DHT22;25908;51.984;5.928;2022-07-15T12:32:04;23.80;52.30
39023;DHT22;25908;51.984;5.928;2022-07-15T12:34:51;23.80;53.30
39023;DHT22;25908;51.984;5.928;2022-07-15T12:37:23;23.90;52.90
39023;DHT22;25908;51.984;5.928;2022-07-15T12:42:31;24.10;52.10
39023;DHT22;25908;51.984;5.928;2022-07-15T12:45:20;24.20;52.20
39023;DHT22;25908;51.984;5.928;2022-07-15T12:48:12;24.20;52.50
39023;DHT22;25908;51.984;5.928;2022-07-15T12:53:15;24.10;52.20
39023;DHT22;25908;51.984;5.928;2022-07-15T12:55:43;24.10;52.40
39023;DHT22;25908;51.984;5.928;2022-07-15T12:58:12;24.00;52.40
39023;DHT22;25908;51.984;5.928;2022-07-15T13:00:40;23.90;53.10
39023;DHT22;25908;51.984;5.928;2022-07-15T13:03:18;23.80;53.10
39023;DHT22;25908;51.984;5.928;2022-07-15T13:05:46;23.80;53.00
39023;DHT22;25908;51.984;5.928;2022-07-15T13:10:39;23.90;52.30
39023;DHT22;25908;51.984;5.928;2022-07-15T13:13:09;24.00;52.40
39023;DHT22;25908;51.984;5.928;2022-07-15T13:15:35;24.10;53.30
39023;DHT22;25908;51.984;5.928;2022-07-15T13:18:01;24.10;51.50
39023;DHT22;25908;51.984;5.928;2022-07-15T13:20:27;24.10;51.30
39023;DHT22;25908;51.984;5.928;2022-07-15T13:22:53;24.10;52.00
39023;DHT22;25908;51.984;5.928;2022-07-15T13:25:19;24.20;51.90
39023;DHT22;25908;51.984;5.928;2022-07-15T13:27:45;24.30;52.30
39023;DHT22;25908;51.984;5.928;2022-07-15T13:30:12;24.30;51.60
39023;DHT22;25908;51.984;5.928;2022-07-15T13:32:39;24.30;51.30
39023;DHT22;25908;51.984;5.928;2022-07-15T13:35:09;24.20;51.90
39023;DHT22;25908;51.984;5.928;2022-07-15T13:37:35;24.20;50.20
39023;DHT22;25908;51.984;5.928;2022-07-15T13:40:01;24.10;51.00
39023;DHT22;25908;51.984;5.928;2022-07-15T13:42:27;24.00;51.70
39023;DHT22;25908;51.984;5.928;2022-07-15T13:44:54;24.10;52.60
39023;DHT22;25908;51.984;5.928;2022-07-15T13:47:20;24.10;51.90
39023;DHT22;25908;51.984;5.928;2022-07-15T13:49:46;24.00;50.50
39023;DHT22;25908;51.984;5.928;2022-07-15T13:52:31;23.90;51.50
39023;DHT22;25908;51.984;5.928;2022-07-15T13:54:57;24.00;52.00
39023;DHT22;25908;51.984;5.928;2022-07-15T13:57:22;24.00;51.80
39023;DHT22;25908;51.984;5.928;2022-07-15T13:59:48;24.10;52.10
39023;DHT22;25908;51.984;5.928;2022-07-15T14:02:13;24.10;53.10
39023;DHT22;25908;51.984;5.928;2022-07-15T14:04:39;24.20;52.60
39023;DHT22;25908;51.984;5.928;2022-07-15T14:07:05;24.30;52.60
39023;DHT22;25908;51.984;5.928;2022-07-15T14:09:31;24.30;52.60
39023;DHT22;25908;51.984;5.928;2022-07-15T14:11:57;24.30;52.30
39023;DHT22;25908;51.984;5.928;2022-07-15T14:14:23;24.20;52.30
39023;DHT22;25908;51.984;5.928;2022-07-15T14:16:48;24.30;52.80
39023;DHT22;25908;51.984;5.928;2022-07-15T14:19:14;24.30;52.20
39023;DHT22;25908;51.984;5.928;2022-07-15T14:21:40;24.30;52.80
39023;DHT22;25908;51.984;5.928;2022-07-15T14:24:05;24.20;52.60
39023;DHT22;25908;51.984;5.928;2022-07-15T14:26:31;24.20;53.00
39023;DHT22;25908;51.984;5.928;2022-07-15T14:28:56;24.20;53.00
39023;DHT22;25908;51.984;5.928;2022-07-15T14:31:22;24.20;53.70
39023;DHT22;25908;51.984;5.928;2022-07-15T14:33:47;24.20;52.40
39023;DHT22;25908;51.984;5.928;2022-07-15T14:36:13;24.20;52.00
39023;DHT22;25908;51.984;5.928;2022-07-15T14:38:40;24.20;52.40
39023;DHT22;25908;51.984;5.928;2022-07-15T14:41:06;24.20;52.10
39023;DHT22;25908;51.984;5.928;2022-07-15T14:43:33;24.20;52.20
39023;DHT22;25908;51.984;5.928;2022-07-15T14:45:58;24.20;52.60
39023;DHT22;25908;51.984;5.928;2022-07-15T14:48:24;24.30;52.20
39023;DHT22;25908;51.984;5.928;2022-07-15T14:50:50;24.30;51.20
39023;DHT22;25908;51.984;5.928;2022-07-15T14:53:17;24.30;51.00
39023;DHT22;25908;51.984;5.928;2022-07-15T14:55:43;24.30;53.10
39023;DHT22;25908;51.984;5.928;2022-07-15T14:58:09;24.30;52.00
39023;DHT22;25908;51.984;5.928;2022-07-15T15:00:38;24.20;52.40
39023;DHT22;25908;51.984;5.928;2022-07-15T15:03:03;24.10;52.70
39023;DHT22;25908;51.984;5.928;2022-07-15T15:05:29;24.10;52.90
39023;DHT22;25908;51.984;5.928;2022-07-15T15:07:55;24.10;52.70
39023;DHT22;25908;51.984;5.928;2022-07-15T15:10:20;24.10;53.20
39023;DHT22;25908;51.984;5.928;2022-07-15T15:12:46;24.20;53.30
39023;DHT22;25908;51.984;5.928;2022-07-15T15:15:11;24.20;52.10
39023;DHT22;25908;51.984;5.928;2022-07-15T15:17:37;24.20;52.30
39023;DHT22;25908;51.984;5.928;2022-07-15T15:20:03;24.20;52.20
39023;DHT22;25908;51.984;5.928;2022-07-15T15:22:33;24.10;51.10
39023;DHT22;25908;51.984;5.928;2022-07-15T15:24:58;23.80;52.00
39023;DHT22;25908;51.984;5.928;2022-07-15T15:27:24;23.60;51.90
39023;DHT22;25908;51.984;5.928;2022-07-15T15:29:49;23.50;52.30
39023;DHT22;25908;51.984;5.928;2022-07-15T15:32:15;23.50;53.20
39023;DHT22;25908;51.984;5.928;2022-07-15T15:34:42;23.50;53.10
39023;DHT22;25908;51.984;5.928;2022-07-15T15:37:08;23.50;54.10
39023;DHT22;25908;51.984;5.928;2022-07-15T15:39:34;23.60;53.30
39023;DHT22;25908;51.984;5.928;2022-07-15T15:42:00;23.60;52.90
39023;DHT22;25908;51.984;5.928;2022-07-15T15:44:25;23.70;53.70
39023;DHT22;25908;51.984;5.928;2022-07-15T15:46:51;23.70;54.70
39023;DHT22;25908;51.984;5.928;2022-07-15T15:49:16;23.80;54.70
39023;DHT22;25908;51.984;5.928;2022-07-15T15:51:42;23.70;51.50
39023;DHT22;25908;51.984;5.928;2022-07-15T15:54:08;23.70;54.20
39023;DHT22;25908;51.984;5.928;2022-07-15T15:56:34;23.70;54.50
39023;DHT22;25908;51.984;5.928;2022-07-15T15:58:59;23.70;54.10
39023;DHT22;25908;51.984;5.928;2022-07-15T16:01:25;23.70;52.40
39023;DHT22;25908;51.984;5.928;2022-07-15T16:03:51;23.60;52.20
39023;DHT22;25908;51.984;5.928;2022-07-15T16:06:16;23.60;52.40
39023;DHT22;25908;51.984;5.928;2022-07-15T16:08:42;23.60;53.10
39023;DHT22;25908;51.984;5.928;2022-07-15T16:11:08;23.60;54.60
39023;DHT22;25908;51.984;5.928;2022-07-15T16:13:33;23.60;53.10
39023;DHT22;25908;51.984;5.928;2022-07-15T16:15:59;23.70;53.50